sensor_id;sensor_type;location;lat;lon;timestamp;P1;durP1;ratioP1;P2;durP2;ratioP2
42602;SDS011;28233;55.748;48.752;2023-12-28T00:00:26;15.68;;;6.10;;
42602;SDS011;28233;55.748;48.752;2023-12-28T00:02:29;8.98;;;5.38;;
42602;SDS011;28233;55.748;48.752;2023-12-28T00:04:32;13.23;;;6.43;;
42602;SDS011;28233;55.748;48.752;2023-12-28T00:06:37;11.15;;;5.40;;
42602;SDS011;28233;55.748;48.752;2023-12-28T00:08:40;13.02;;;6.07;;
42602;SDS011;28233;55.748;48.752;2023-12-28T00:10:46;12.70;;;6.47;;
42602;SDS011;28233;55.748;48.752;2023-12-28T00:12:49;14.60;;;6.50;;
42602;SDS011;28233;55.748;48.752;2023-12-28T00:14:52;15.77;;;6.70;;
42602;SDS011;28233;55.748;48.752;2023-12-28T00:16:55;12.45;;;5.53;;
42602;SDS011;28233;55.748;48.752;2023-12-28T00:18:58;15.00;;;6.25;;
42602;SDS011;28233;55.748;48.752;2023-12-28T00:21:02;13.98;;;5.80;;
42602;SDS011;28233;55.748;48.752;2023-12-28T00:23:05;13.88;;;6.45;;
42602;SDS011;28233;55.748;48.752;2023-12-28T00:25:08;13.68;;;7.10;;
42602;SDS011;28233;55.748;48.752;2023-12-28T00:27:11;17.90;;;7.90;;
42602;SDS011;28233;55.748;48.752;2023-12-28T00:29:14;16.30;;;7.30;;
42602;SDS011;28233;55.748;48.752;2023-12-28T00:31:17;14.07;;;7.07;;
42602;SDS011;28233;55.748;48.752;2023-12-28T00:33:20;15.50;;;6.88;;
42602;SDS011;28233;55.748;48.752;2023-12-28T00:35:23;15.15;;;6.90;;
42602;SDS011;28233;55.748;48.752;2023-12-28T00:37:26;20.85;;;9.05;;
42602;SDS011;28233;55.748;48.752;2023-12-28T00:39:29;14.65;;;7.25;;
42602;SDS011;28233;55.748;48.752;2023-12-28T00:41:32;15.70;;;8.00;;
42602;SDS011;28233;55.748;48.752;2023-12-28T00:43:34;14.15;;;7.35;;
42602;SDS011;28233;55.748;48.752;2023-12-28T00:45:37;13.85;;;6.75;;
42602;SDS011;28233;55.748;48.752;2023-12-28T00:47:40;13.95;;;6.78;;
42602;SDS011;28233;55.748;48.752;2023-12-28T00:49:45;13.43;;;6.97;;
42602;SDS011;28233;55.748;48.752;2023-12-28T00:51:48;12.93;;;6.45;;
42602;SDS011;28233;55.748;48.752;2023-12-28T00:53:51;10.00;;;5.65;;
42602;SDS011;28233;55.748;48.752;2023-12-28T00:55:54;12.13;;;5.53;;
42602;SDS011;28233;55.748;48.752;2023-12-28T00:57:57;14.70;;;7.05;;
42602;SDS011;28233;55.748;48.752;2023-12-28T01:00:00;13.40;;;6.57;;
42602;SDS011;28233;55.748;48.752;2023-12-28T01:02:07;13.43;;;6.63;;
42602;SDS011;28233;55.748;48.752;2023-12-28T01:04:10;15.43;;;6.68;;
42602;SDS011;28233;55.748;48.752;2023-12-28T01:06:13;16.77;;;5.97;;
42602;SDS011;28233;55.748;48.752;2023-12-28T01:08:17;12.93;;;6.50;;
42602;SDS011;28233;55.748;48.752;2023-12-28T01:10:20;14.80;;;6.13;;
42602;SDS011;28233;55.748;48.752;2023-12-28T01:12:23;13.25;;;6.28;;
42602;SDS011;28233;55.748;48.752;2023-12-28T01:14:26;18.63;;;7.07;;
42602;SDS011;28233;55.748;48.752;2023-12-28T01:16:29;15.65;;;6.82;;
42602;SDS011;28233;55.748;48.752;2023-12-28T01:18:32;13.77;;;6.25;;
42602;SDS011;28233;55.748;48.752;2023-12-28T01:20:35;13.57;;;7.57;;
42602;SDS011;28233;55.748;48.752;2023-12-28T01:22:38;15.10;;;6.97;;
42602;SDS011;28233;55.748;48.752;2023-12-28T01:24:41;14.40;;;7.00;;
42602;SDS011;28233;55.748;48.752;2023-12-28T01:26:44;17.05;;;7.50;;
42602;SDS011;28233;55.748;48.752;2023-12-28T01:28:47;17.08;;;7.72;;
42602;SDS011;28233;55.748;48.752;2023-12-28T01:30:49;16.77;;;7.85;;
42602;SDS011;28233;55.748;48.752;2023-12-28T01:32:53;14.20;;;6.65;;
42602;SDS011;28233;55.748;48.752;2023-12-28T01:34:56;12.05;;;6.47;;
42602;SDS011;28233;55.748;48.752;2023-12-28T01:36:59;16.52;;;6.57;;
42602;SDS011;28233;55.748;48.752;2023-12-28T01:39:01;20.05;;;7.25;;
42602;SDS011;28233;55.748;48.752;2023-12-28T01:41:05;14.27;;;6.43;;
42602;SDS011;28233;55.748;48.752;2023-12-28T01:43:08;16.27;;;7.13;;
42602;SDS011;28233;55.748;48.752;2023-12-28T01:45:11;14.80;;;6.75;;
42602;SDS011;28233;55.748;48.752;2023-12-28T01:47:14;13.30;;;7.10;;
42602;SDS011;28233;55.748;48.752;2023-12-28T01:49:16;16.52;;;7.20;;
42602;SDS011;28233;55.748;48.752;2023-12-28T01:51:19;13.68;;;7.10;;
42602;SDS011;28233;55.748;48.752;2023-12-28T01:53:23;16.48;;;7.15;;
42602;SDS011;28233;55.748;48.752;2023-12-28T01:55:26;13.95;;;6.05;;
42602;SDS011;28233;55.748;48.752;2023-12-28T01:57:30;15.38;;;6.75;;
42602;SDS011;28233;55.748;48.752;2023-12-28T01:59:33;20.73;;;7.47;;
42602;SDS011;28233;55.748;48.752;2023-12-28T02:01:36;15.07;;;8.45;;
42602;SDS011;28233;55.748;48.752;2023-12-28T02:03:39;14.85;;;8.73;;
42602;SDS011;28233;55.748;48.752;2023-12-28T02:05:42;18.10;;;7.93;;
42602;SDS011;28233;55.748;48.752;2023-12-28T02:07:45;14.75;;;7.55;;
42602;SDS011;28233;55.748;48.752;2023-12-28T02:09:48;13.23;;;6.65;;
42602;SDS011;28233;55.748;48.752;2023-12-28T02:11:52;14.18;;;6.53;;
42602;SDS011;28233;55.748;48.752;2023-12-28T02:13:56;14.50;;;7.45;;
42602;SDS011;28233;55.748;48.752;2023-12-28T02:16:03;17.10;;;8.02;;
42602;SDS011;28233;55.748;48.752;2023-12-28T02:18:19;18.77;;;8.27;;
42602;SDS011;28233;55.748;48.752;2023-12-28T02:20:33;17.83;;;7.07;;
42602;SDS011;28233;55.748;48.752;2023-12-28T02:22:37;19.17;;;7.50;;
42602;SDS011;28233;55.748;48.752;2023-12-28T02:27:16;19.23;;;8.95;;
42602;SDS011;28233;55.748;48.752;2023-12-28T02:29:19;19.60;;;7.82;;
42602;SDS011;28233;55.748;48.752;2023-12-28T02:31:25;16.48;;;8.00;;
42602;SDS011;28233;55.748;48.752;2023-12-28T02:33:46;17.45;;;8.98;;
42602;SDS011;28233;55.748;48.752;2023-12-28T02:36:11;19.10;;;9.00;;
42602;SDS011;28233;55.748;48.752;2023-12-28T02:40:18;17.05;;;8.07;;
42602;SDS011;28233;55.748;48.752;2023-12-28T02:42:21;16.58;;;8.70;;
42602;SDS011;28233;55.748;48.752;2023-12-28T02:44:25;17.25;;;8.07;;
42602;SDS011;28233;55.748;48.752;2023-12-28T02:46:27;15.80;;;7.03;;
42602;SDS011;28233;55.748;48.752;2023-12-28T02:48:30;16.60;;;7.95;;
42602;SDS011;28233;55.748;48.752;2023-12-28T02:50:34;20.88;;;9.50;;
42602;SDS011;28233;55.748;48.752;2023-12-28T02:52:37;16.73;;;7.97;;
42602;SDS011;28233;55.748;48.752;2023-12-28T02:54:40;20.20;;;8.65;;
42602;SDS011;28233;55.748;48.752;2023-12-28T02:56:43;20.38;;;8.90;;
42602;SDS011;28233;55.748;48.752;2023-12-28T02:58:46;19.40;;;9.30;;
42602;SDS011;28233;55.748;48.752;2023-12-28T03:00:48;20.55;;;8.98;;
42602;SDS011;28233;55.748;48.752;2023-12-28T03:02:51;18.63;;;8.57;;
42602;SDS011;28233;55.748;48.752;2023-12-28T03:04:55;18.63;;;9.57;;
42602;SDS011;28233;55.748;48.752;2023-12-28T03:06:58;18.13;;;8.05;;
42602;SDS011;28233;55.748;48.752;2023-12-28T03:09:01;19.00;;;9.20;;
42602;SDS011;28233;55.748;48.752;2023-12-28T03:11:04;24.85;;;9.60;;
42602;SDS011;28233;55.748;48.752;2023-12-28T03:13:06;18.08;;;9.07;;
42602;SDS011;28233;55.748;48.752;2023-12-28T03:15:09;22.77;;;8.52;;
42602;SDS011;28233;55.748;48.752;2023-12-28T03:17:12;18.92;;;8.35;;
42602;SDS011;28233;55.748;48.752;2023-12-28T03:19:15;19.55;;;9.93;;
42602;SDS011;28233;55.748;48.752;2023-12-28T03:21:18;17.50;;;8.70;;
42602;SDS011;28233;55.748;48.752;2023-12-28T03:23:21;15.30;;;8.10;;
42602;SDS011;28233;55.748;48.752;2023-12-28T03:25:24;21.33;;;9.10;;
42602;SDS011;28233;55.748;48.752;2023-12-28T03:27:27;21.85;;;9.02;;
42602;SDS011;28233;55.748;48.752;2023-12-28T03:29:29;18.55;;;9.05;;
42602;SDS011;28233;55.748;48.752;2023-12-28T03:31:32;16.27;;;7.47;;
42602;SDS011;28233;55.748;48.752;2023-12-28T03:33:35;17.60;;;7.93;;
42602;SDS011;28233;55.748;48.752;2023-12-28T03:35:38;13.82;;;7.90;;
42602;SDS011;28233;55.748;48.752;2023-12-28T03:37:41;14.38;;;6.22;;
42602;SDS011;28233;55.748;48.752;2023-12-28T03:39:44;18.70;;;8.30;;
42602;SDS011;28233;55.748;48.752;2023-12-28T03:41:48;16.65;;;8.32;;
42602;SDS011;28233;55.748;48.752;2023-12-28T03:43:51;14.48;;;7.47;;
42602;SDS011;28233;55.748;48.752;2023-12-28T03:45:53;17.55;;;7.35;;
42602;SDS011;28233;55.748;48.752;2023-12-28T03:47:56;17.15;;;6.97;;
42602;SDS011;28233;55.748;48.752;2023-12-28T03:50:00;16.88;;;7.95;;
42602;SDS011;28233;55.748;48.752;2023-12-28T03:52:05;18.00;;;7.72;;
42602;SDS011;28233;55.748;48.752;2023-12-28T03:54:08;16.35;;;7.28;;
42602;SDS011;28233;55.748;48.752;2023-12-28T03:56:26;14.57;;;6.97;;
42602;SDS011;28233;55.748;48.752;2023-12-28T03:58:30;11.95;;;7.13;;
42602;SDS011;28233;55.748;48.752;2023-12-28T04:00:32;13.85;;;7.43;;
42602;SDS011;28233;55.748;48.752;2023-12-28T04:02:38;15.40;;;7.10;;
42602;SDS011;28233;55.748;48.752;2023-12-28T04:04:41;14.20;;;7.60;;
42602;SDS011;28233;55.748;48.752;2023-12-28T04:06:44;13.93;;;6.07;;
42602;SDS011;28233;55.748;48.752;2023-12-28T04:08:47;13.65;;;6.65;;
42602;SDS011;28233;55.748;48.752;2023-12-28T04:10:50;14.80;;;7.35;;
42602;SDS011;28233;55.748;48.752;2023-12-28T04:12:53;11.57;;;6.55;;
42602;SDS011;28233;55.748;48.752;2023-12-28T04:14:59;19.08;;;6.20;;
42602;SDS011;28233;55.748;48.752;2023-12-28T04:17:05;11.88;;;5.50;;
42602;SDS011;28233;55.748;48.752;2023-12-28T04:19:08;12.15;;;5.72;;
42602;SDS011;28233;55.748;48.752;2023-12-28T04:21:11;11.00;;;5.53;;
42602;SDS011;28233;55.748;48.752;2023-12-28T04:23:16;13.23;;;5.38;;
42602;SDS011;28233;55.748;48.752;2023-12-28T04:25:19;7.55;;;4.95;;
42602;SDS011;28233;55.748;48.752;2023-12-28T04:27:22;9.23;;;4.45;;
42602;SDS011;28233;55.748;48.752;2023-12-28T04:29:25;8.60;;;4.63;;
42602;SDS011;28233;55.748;48.752;2023-12-28T04:31:28;13.05;;;5.38;;
42602;SDS011;28233;55.748;48.752;2023-12-28T04:33:31;8.23;;;4.40;;
42602;SDS011;28233;55.748;48.752;2023-12-28T04:35:35;11.02;;;5.05;;
42602;SDS011;28233;55.748;48.752;2023-12-28T04:37:38;10.93;;;5.55;;
42602;SDS011;28233;55.748;48.752;2023-12-28T04:39:41;6.97;;;4.38;;
42602;SDS011;28233;55.748;48.752;2023-12-28T04:41:44;8.90;;;4.82;;
42602;SDS011;28233;55.748;48.752;2023-12-28T04:43:47;9.65;;;5.22;;
42602;SDS011;28233;55.748;48.752;2023-12-28T04:45:50;6.85;;;3.90;;
42602;SDS011;28233;55.748;48.752;2023-12-28T04:47:53;11.25;;;6.55;;
42602;SDS011;28233;55.748;48.752;2023-12-28T04:49:57;14.98;;;5.15;;
42602;SDS011;28233;55.748;48.752;2023-12-28T04:52:00;7.25;;;4.82;;
42602;SDS011;28233;55.748;48.752;2023-12-28T04:54:03;8.88;;;5.05;;
42602;SDS011;28233;55.748;48.752;2023-12-28T04:56:06;7.60;;;4.47;;
42602;SDS011;28233;55.748;48.752;2023-12-28T04:58:10;8.32;;;4.70;;
42602;SDS011;28233;55.748;48.752;2023-12-28T05:00:14;9.07;;;4.88;;
42602;SDS011;28233;55.748;48.752;2023-12-28T05:02:17;9.60;;;5.03;;
42602;SDS011;28233;55.748;48.752;2023-12-28T05:04:20;9.05;;;4.95;;
42602;SDS011;28233;55.748;48.752;2023-12-28T05:06:23;8.68;;;4.80;;
42602;SDS011;28233;55.748;48.752;2023-12-28T05:08:26;6.20;;;3.90;;
42602;SDS011;28233;55.748;48.752;2023-12-28T05:10:29;7.93;;;4.10;;
42602;SDS011;28233;55.748;48.752;2023-12-28T05:12:32;12.43;;;4.82;;
42602;SDS011;28233;55.748;48.752;2023-12-28T05:14:46;9.48;;;4.45;;
42602;SDS011;28233;55.748;48.752;2023-12-28T05:16:49;9.57;;;4.55;;
42602;SDS011;28233;55.748;48.752;2023-12-28T05:18:52;6.97;;;3.20;;
42602;SDS011;28233;55.748;48.752;2023-12-28T05:20:55;7.82;;;3.33;;
42602;SDS011;28233;55.748;48.752;2023-12-28T05:22:58;5.05;;;3.33;;
42602;SDS011;28233;55.748;48.752;2023-12-28T05:25:01;7.15;;;3.30;;
42602;SDS011;28233;55.748;48.752;2023-12-28T05:27:05;8.88;;;3.80;;
42602;SDS011;28233;55.748;48.752;2023-12-28T05:29:08;4.35;;;2.92;;
42602;SDS011;28233;55.748;48.752;2023-12-28T05:31:11;7.45;;;3.58;;
42602;SDS011;28233;55.748;48.752;2023-12-28T05:33:15;9.32;;;4.18;;
42602;SDS011;28233;55.748;48.752;2023-12-28T05:35:18;4.60;;;2.40;;
42602;SDS011;28233;55.748;48.752;2023-12-28T05:37:21;7.05;;;3.35;;
42602;SDS011;28233;55.748;48.752;2023-12-28T05:39:24;7.65;;;4.13;;
42602;SDS011;28233;55.748;48.752;2023-12-28T05:41:27;8.27;;;4.25;;
42602;SDS011;28233;55.748;48.752;2023-12-28T05:43:29;10.88;;;3.92;;
42602;SDS011;28233;55.748;48.752;2023-12-28T05:45:32;6.57;;;3.15;;
42602;SDS011;28233;55.748;48.752;2023-12-28T05:47:35;6.43;;;3.75;;
42602;SDS011;28233;55.748;48.752;2023-12-28T05:49:38;5.82;;;3.13;;
42602;SDS011;28233;55.748;48.752;2023-12-28T05:51:41;8.35;;;3.63;;
42602;SDS011;28233;55.748;48.752;2023-12-28T05:53:44;5.75;;;3.25;;
42602;SDS011;28233;55.748;48.752;2023-12-28T05:55:47;3.75;;;2.63;;
42602;SDS011;28233;55.748;48.752;2023-12-28T05:57:50;5.80;;;2.67;;
42602;SDS011;28233;55.748;48.752;2023-12-28T05:59:52;5.93;;;2.22;;
42602;SDS011;28233;55.748;48.752;2023-12-28T06:01:55;6.13;;;2.63;;
42602;SDS011;28233;55.748;48.752;2023-12-28T06:03:58;3.35;;;1.95;;
42602;SDS011;28233;55.748;48.752;2023-12-28T06:06:01;6.53;;;2.78;;
42602;SDS011;28233;55.748;48.752;2023-12-28T06:08:04;3.13;;;1.83;;
42602;SDS011;28233;55.748;48.752;2023-12-28T06:10:07;6.13;;;2.50;;
42602;SDS011;28233;55.748;48.752;2023-12-28T06:12:10;3.55;;;1.80;;
42602;SDS011;28233;55.748;48.752;2023-12-28T06:14:13;3.83;;;2.00;;
42602;SDS011;28233;55.748;48.752;2023-12-28T06:16:17;4.57;;;2.03;;
42602;SDS011;28233;55.748;48.752;2023-12-28T06:18:20;3.57;;;1.60;;
42602;SDS011;28233;55.748;48.752;2023-12-28T06:20:23;6.35;;;2.13;;
42602;SDS011;28233;55.748;48.752;2023-12-28T06:22:26;3.92;;;2.17;;
42602;SDS011;28233;55.748;48.752;2023-12-28T06:24:29;3.85;;;1.38;;
42602;SDS011;28233;55.748;48.752;2023-12-28T06:26:32;3.47;;;1.67;;
42602;SDS011;28233;55.748;48.752;2023-12-28T06:28:35;3.50;;;1.77;;
42602;SDS011;28233;55.748;48.752;2023-12-28T06:30:38;4.13;;;2.33;;
42602;SDS011;28233;55.748;48.752;2023-12-28T06:32:42;3.83;;;2.17;;
42602;SDS011;28233;55.748;48.752;2023-12-28T06:34:45;5.07;;;2.58;;
42602;SDS011;28233;55.748;48.752;2023-12-28T06:36:48;4.53;;;2.13;;
42602;SDS011;28233;55.748;48.752;2023-12-28T06:38:51;6.22;;;2.22;;
42602;SDS011;28233;55.748;48.752;2023-12-28T06:40:54;6.68;;;3.40;;
42602;SDS011;28233;55.748;48.752;2023-12-28T06:42:58;7.50;;;2.80;;
42602;SDS011;28233;55.748;48.752;2023-12-28T06:45:02;6.55;;;3.08;;
42602;SDS011;28233;55.748;48.752;2023-12-28T06:47:06;6.15;;;3.13;;
42602;SDS011;28233;55.748;48.752;2023-12-28T06:49:09;6.35;;;2.70;;
42602;SDS011;28233;55.748;48.752;2023-12-28T06:51:16;5.95;;;3.05;;
42602;SDS011;28233;55.748;48.752;2023-12-28T06:53:20;6.40;;;3.40;;
42602;SDS011;28233;55.748;48.752;2023-12-28T06:55:23;5.85;;;2.47;;
42602;SDS011;28233;55.748;48.752;2023-12-28T06:57:26;4.75;;;2.63;;
42602;SDS011;28233;55.748;48.752;2023-12-28T06:59:30;9.02;;;3.30;;
42602;SDS011;28233;55.748;48.752;2023-12-28T07:01:32;4.80;;;2.95;;
42602;SDS011;28233;55.748;48.752;2023-12-28T07:03:35;5.53;;;3.10;;
42602;SDS011;28233;55.748;48.752;2023-12-28T07:05:39;4.88;;;2.50;;
42602;SDS011;28233;55.748;48.752;2023-12-28T07:07:42;7.40;;;3.90;;
42602;SDS011;28233;55.748;48.752;2023-12-28T07:09:45;7.18;;;3.13;;
42602;SDS011;28233;55.748;48.752;2023-12-28T07:11:48;8.13;;;4.07;;
42602;SDS011;28233;55.748;48.752;2023-12-28T07:13:50;6.60;;;3.28;;
42602;SDS011;28233;55.748;48.752;2023-12-28T07:15:53;5.82;;;3.05;;
42602;SDS011;28233;55.748;48.752;2023-12-28T07:18:00;6.13;;;3.55;;
42602;SDS011;28233;55.748;48.752;2023-12-28T07:20:04;4.40;;;2.63;;
42602;SDS011;28233;55.748;48.752;2023-12-28T07:22:26;7.20;;;2.83;;
42602;SDS011;28233;55.748;48.752;2023-12-28T07:24:29;6.07;;;3.15;;
42602;SDS011;28233;55.748;48.752;2023-12-28T07:26:32;5.25;;;2.72;;
42602;SDS011;28233;55.748;48.752;2023-12-28T07:28:35;4.90;;;2.38;;
42602;SDS011;28233;55.748;48.752;2023-12-28T07:30:38;8.10;;;2.75;;
42602;SDS011;28233;55.748;48.752;2023-12-28T07:32:41;8.20;;;3.75;;
42602;SDS011;28233;55.748;48.752;2023-12-28T07:34:44;4.70;;;3.00;;
42602;SDS011;28233;55.748;48.752;2023-12-28T07:36:46;5.63;;;2.33;;
42602;SDS011;28233;55.748;48.752;2023-12-28T07:38:49;4.60;;;2.55;;
42602;SDS011;28233;55.748;48.752;2023-12-28T07:40:52;7.35;;;3.00;;
42602;SDS011;28233;55.748;48.752;2023-12-28T07:42:55;4.63;;;2.78;;
42602;SDS011;28233;55.748;48.752;2023-12-28T07:44:59;6.50;;;3.03;;
42602;SDS011;28233;55.748;48.752;2023-12-28T07:47:04;6.97;;;2.53;;
42602;SDS011;28233;55.748;48.752;2023-12-28T07:49:10;8.05;;;2.90;;
42602;SDS011;28233;55.748;48.752;2023-12-28T07:51:13;4.43;;;2.72;;
42602;SDS011;28233;55.748;48.752;2023-12-28T07:53:16;7.45;;;3.88;;
42602;SDS011;28233;55.748;48.752;2023-12-28T07:55:19;3.88;;;2.42;;
42602;SDS011;28233;55.748;48.752;2023-12-28T07:57:22;5.75;;;2.60;;
42602;SDS011;28233;55.748;48.752;2023-12-28T07:59:25;7.28;;;3.42;;
42602;SDS011;28233;55.748;48.752;2023-12-28T08:01:28;5.15;;;2.47;;
42602;SDS011;28233;55.748;48.752;2023-12-28T08:03:32;7.00;;;3.10;;
42602;SDS011;28233;55.748;48.752;2023-12-28T08:05:36;6.55;;;3.17;;
42602;SDS011;28233;55.748;48.752;2023-12-28T08:07:39;5.97;;;2.60;;
42602;SDS011;28233;55.748;48.752;2023-12-28T08:09:42;7.28;;;2.83;;
42602;SDS011;28233;55.748;48.752;2023-12-28T08:11:45;6.82;;;2.88;;
42602;SDS011;28233;55.748;48.752;2023-12-28T08:13:48;5.88;;;3.03;;
42602;SDS011;28233;55.748;48.752;2023-12-28T08:15:51;6.75;;;2.75;;
42602;SDS011;28233;55.748;48.752;2023-12-28T08:17:54;4.20;;;2.45;;
42602;SDS011;28233;55.748;48.752;2023-12-28T08:19:56;4.15;;;2.63;;
42602;SDS011;28233;55.748;48.752;2023-12-28T08:22:00;3.53;;;2.22;;
42602;SDS011;28233;55.748;48.752;2023-12-28T08:24:02;4.75;;;2.72;;
42602;SDS011;28233;55.748;48.752;2023-12-28T08:26:06;8.23;;;2.63;;
42602;SDS011;28233;55.748;48.752;2023-12-28T08:28:09;3.25;;;2.05;;
42602;SDS011;28233;55.748;48.752;2023-12-28T08:30:12;5.47;;;2.45;;
42602;SDS011;28233;55.748;48.752;2023-12-28T08:32:15;5.22;;;2.55;;
42602;SDS011;28233;55.748;48.752;2023-12-28T08:34:19;4.20;;;2.65;;
42602;SDS011;28233;55.748;48.752;2023-12-28T08:36:23;4.70;;;2.15;;
42602;SDS011;28233;55.748;48.752;2023-12-28T08:38:25;4.07;;;2.55;;
42602;SDS011;28233;55.748;48.752;2023-12-28T08:40:28;6.90;;;2.85;;
42602;SDS011;28233;55.748;48.752;2023-12-28T08:42:31;4.95;;;2.20;;
42602;SDS011;28233;55.748;48.752;2023-12-28T08:44:34;5.90;;;2.35;;
42602;SDS011;28233;55.748;48.752;2023-12-28T08:46:38;5.10;;;2.03;;
42602;SDS011;28233;55.748;48.752;2023-12-28T08:48:42;4.70;;;2.47;;
42602;SDS011;28233;55.748;48.752;2023-12-28T08:50:45;4.10;;;2.42;;
42602;SDS011;28233;55.748;48.752;2023-12-28T08:52:48;4.50;;;2.35;;
42602;SDS011;28233;55.748;48.752;2023-12-28T08:54:51;7.32;;;2.67;;
42602;SDS011;28233;55.748;48.752;2023-12-28T08:56:54;4.13;;;2.17;;
42602;SDS011;28233;55.748;48.752;2023-12-28T08:59:00;4.32;;;1.85;;
42602;SDS011;28233;55.748;48.752;2023-12-28T09:01:03;4.90;;;2.97;;
42602;SDS011;28233;55.748;48.752;2023-12-28T09:03:06;5.75;;;2.28;;
42602;SDS011;28233;55.748;48.752;2023-12-28T09:05:09;5.20;;;3.10;;
42602;SDS011;28233;55.748;48.752;2023-12-28T09:07:12;6.85;;;2.50;;
42602;SDS011;28233;55.748;48.752;2023-12-28T09:09:15;2.80;;;1.80;;
42602;SDS011;28233;55.748;48.752;2023-12-28T09:11:18;4.50;;;2.03;;
42602;SDS011;28233;55.748;48.752;2023-12-28T09:13:22;6.30;;;2.85;;
42602;SDS011;28233;55.748;48.752;2023-12-28T09:15:24;4.25;;;2.17;;
42602;SDS011;28233;55.748;48.752;2023-12-28T09:17:27;6.95;;;2.50;;
42602;SDS011;28233;55.748;48.752;2023-12-28T09:19:30;3.97;;;2.42;;
42602;SDS011;28233;55.748;48.752;2023-12-28T09:21:34;6.28;;;2.85;;
42602;SDS011;28233;55.748;48.752;2023-12-28T09:23:37;4.20;;;2.30;;
42602;SDS011;28233;55.748;48.752;2023-12-28T09:25:40;4.43;;;2.40;;
42602;SDS011;28233;55.748;48.752;2023-12-28T09:27:43;2.00;;;1.63;;
42602;SDS011;28233;55.748;48.752;2023-12-28T09:29:46;4.13;;;2.38;;
42602;SDS011;28233;55.748;48.752;2023-12-28T09:31:49;5.07;;;2.88;;
42602;SDS011;28233;55.748;48.752;2023-12-28T09:33:52;4.82;;;3.08;;
42602;SDS011;28233;55.748;48.752;2023-12-28T09:35:55;7.35;;;2.67;;
42602;SDS011;28233;55.748;48.752;2023-12-28T09:37:58;5.70;;;2.50;;
42602;SDS011;28233;55.748;48.752;2023-12-28T09:40:01;4.43;;;2.80;;
42602;SDS011;28233;55.748;48.752;2023-12-28T09:42:06;4.72;;;3.20;;
42602;SDS011;28233;55.748;48.752;2023-12-28T09:44:20;8.13;;;3.05;;
42602;SDS011;28233;55.748;48.752;2023-12-28T09:46:24;4.63;;;2.53;;
42602;SDS011;28233;55.748;48.752;2023-12-28T09:48:29;5.45;;;2.92;;
42602;SDS011;28233;55.748;48.752;2023-12-28T09:50:32;4.25;;;2.85;;
42602;SDS011;28233;55.748;48.752;2023-12-28T09:52:36;4.55;;;2.33;;
42602;SDS011;28233;55.748;48.752;2023-12-28T09:54:39;4.72;;;2.33;;
42602;SDS011;28233;55.748;48.752;2023-12-28T09:56:41;3.60;;;2.28;;
42602;SDS011;28233;55.748;48.752;2023-12-28T09:58:45;4.78;;;2.58;;
42602;SDS011;28233;55.748;48.752;2023-12-28T10:00:51;3.83;;;2.08;;
42602;SDS011;28233;55.748;48.752;2023-12-28T10:02:54;3.65;;;2.92;;
42602;SDS011;28233;55.748;48.752;2023-12-28T10:04:56;4.45;;;2.38;;
42602;SDS011;28233;55.748;48.752;2023-12-28T10:07:00;4.00;;;2.45;;
42602;SDS011;28233;55.748;48.752;2023-12-28T10:09:03;3.33;;;2.45;;
42602;SDS011;28233;55.748;48.752;2023-12-28T10:11:09;4.28;;;2.30;;
42602;SDS011;28233;55.748;48.752;2023-12-28T10:13:12;6.22;;;3.45;;
42602;SDS011;28233;55.748;48.752;2023-12-28T10:15:15;4.65;;;2.53;;
42602;SDS011;28233;55.748;48.752;2023-12-28T10:17:18;4.38;;;2.65;;
42602;SDS011;28233;55.748;48.752;2023-12-28T10:19:21;4.57;;;2.63;;
42602;SDS011;28233;55.748;48.752;2023-12-28T10:21:25;3.15;;;2.15;;
42602;SDS011;28233;55.748;48.752;2023-12-28T10:23:28;4.25;;;2.38;;
42602;SDS011;28233;55.748;48.752;2023-12-28T10:25:31;6.75;;;3.10;;
42602;SDS011;28233;55.748;48.752;2023-12-28T10:27:39;4.68;;;2.20;;
42602;SDS011;28233;55.748;48.752;2023-12-28T10:29:45;4.13;;;2.50;;
42602;SDS011;28233;55.748;48.752;2023-12-28T10:31:49;4.13;;;2.00;;
42602;SDS011;28233;55.748;48.752;2023-12-28T10:33:57;3.95;;;1.88;;
42602;SDS011;28233;55.748;48.752;2023-12-28T10:36:06;5.28;;;2.83;;
42602;SDS011;28233;55.748;48.752;2023-12-28T10:38:10;7.30;;;2.58;;
42602;SDS011;28233;55.748;48.752;2023-12-28T10:40:18;5.85;;;2.53;;
42602;SDS011;28233;55.748;48.752;2023-12-28T10:42:28;3.45;;;2.15;;
42602;SDS011;28233;55.748;48.752;2023-12-28T10:44:33;3.95;;;2.28;;
42602;SDS011;28233;55.748;48.752;2023-12-28T10:46:43;5.60;;;3.90;;
42602;SDS011;28233;55.748;48.752;2023-12-28T10:48:47;7.07;;;3.22;;
42602;SDS011;28233;55.748;48.752;2023-12-28T10:50:55;3.58;;;2.60;;
42602;SDS011;28233;55.748;48.752;2023-12-28T10:53:00;4.80;;;2.30;;
42602;SDS011;28233;55.748;48.752;2023-12-28T10:57:26;6.35;;;1.90;;
42602;SDS011;28233;55.748;48.752;2023-12-28T11:01:43;5.35;;;2.28;;
42602;SDS011;28233;55.748;48.752;2023-12-28T11:03:52;5.13;;;2.80;;
42602;SDS011;28233;55.748;48.752;2023-12-28T11:06:02;3.42;;;2.28;;
42602;SDS011;28233;55.748;48.752;2023-12-28T11:08:07;5.30;;;2.60;;
42602;SDS011;28233;55.748;48.752;2023-12-28T11:10:11;8.88;;;2.38;;
42602;SDS011;28233;55.748;48.752;2023-12-28T11:12:16;3.70;;;2.22;;
42602;SDS011;28233;55.748;48.752;2023-12-28T11:14:21;5.90;;;2.75;;
42602;SDS011;28233;55.748;48.752;2023-12-28T11:16:25;3.60;;;1.95;;
42602;SDS011;28233;55.748;48.752;2023-12-28T11:18:30;4.68;;;2.40;;
42602;SDS011;28233;55.748;48.752;2023-12-28T11:20:33;3.92;;;2.15;;
42602;SDS011;28233;55.748;48.752;2023-12-28T11:22:36;3.75;;;1.98;;
42602;SDS011;28233;55.748;48.752;2023-12-28T11:24:41;3.15;;;2.17;;
42602;SDS011;28233;55.748;48.752;2023-12-28T11:26:44;7.57;;;2.88;;
42602;SDS011;28233;55.748;48.752;2023-12-28T11:29:03;4.13;;;2.90;;
42602;SDS011;28233;55.748;48.752;2023-12-28T11:31:09;4.25;;;2.88;;
42602;SDS011;28233;55.748;48.752;2023-12-28T11:33:13;9.18;;;2.30;;
42602;SDS011;28233;55.748;48.752;2023-12-28T11:35:16;4.95;;;2.08;;
42602;SDS011;28233;55.748;48.752;2023-12-28T11:37:19;6.72;;;2.25;;
42602;SDS011;28233;55.748;48.752;2023-12-28T11:39:31;3.38;;;2.38;;
42602;SDS011;28233;55.748;48.752;2023-12-28T11:41:37;3.42;;;1.83;;
42602;SDS011;28233;55.748;48.752;2023-12-28T11:43:40;3.50;;;1.95;;
42602;SDS011;28233;55.748;48.752;2023-12-28T11:45:46;2.78;;;1.65;;
42602;SDS011;28233;55.748;48.752;2023-12-28T11:48:02;3.45;;;1.85;;
42602;SDS011;28233;55.748;48.752;2023-12-28T11:50:06;3.78;;;2.33;;
42602;SDS011;28233;55.748;48.752;2023-12-28T11:52:09;4.95;;;2.88;;
42602;SDS011;28233;55.748;48.752;2023-12-28T11:54:15;4.43;;;2.20;;
42602;SDS011;28233;55.748;48.752;2023-12-28T11:56:18;6.00;;;1.83;;
42602;SDS011;28233;55.748;48.752;2023-12-28T11:58:21;4.55;;;2.22;;
42602;SDS011;28233;55.748;48.752;2023-12-28T12:00:24;2.72;;;1.80;;
42602;SDS011;28233;55.748;48.752;2023-12-28T12:02:28;4.88;;;2.17;;
42602;SDS011;28233;55.748;48.752;2023-12-28T12:04:33;2.95;;;1.92;;
42602;SDS011;28233;55.748;48.752;2023-12-28T12:06:37;4.18;;;1.90;;
42602;SDS011;28233;55.748;48.752;2023-12-28T12:08:40;2.38;;;1.52;;
42602;SDS011;28233;55.748;48.752;2023-12-28T12:10:42;5.30;;;1.77;;
42602;SDS011;28233;55.748;48.752;2023-12-28T12:12:45;2.90;;;1.85;;
42602;SDS011;28233;55.748;48.752;2023-12-28T12:14:48;3.25;;;1.85;;
42602;SDS011;28233;55.748;48.752;2023-12-28T12:16:51;5.07;;;2.25;;
42602;SDS011;28233;55.748;48.752;2023-12-28T12:18:55;5.15;;;2.35;;
42602;SDS011;28233;55.748;48.752;2023-12-28T12:20:59;6.50;;;1.90;;